Time;durP1;ratioP1;P1;durP2;ratioP2;P2;SDS_P1;SDS_P2;PMS_P1;PMS_P2;Temp;Humidity;BMP_temperature;BMP_pressure;BME280_temperature;BME280_humidity;BME280_pressure;Samples;Min_cycle;Max_cycle;Signal;HPM_P1;HPM_P2
2021/04/01 00:00:28;;;;;;;1999.90;999.90;;;16.30;99.90;;;;;;5032747;28;20406;-66
2021/04/01 00:02:54;;;;;;;1999.90;999.90;;;16.30;99.90;;;;;;5031556;28;20431;-66
2021/04/01 00:05:23;;;;;;;1999.90;999.90;;;16.30;99.90;;;;;;5031945;28;20822;-66
2021/04/01 00:07:48;;;;;;;1999.90;999.90;;;16.30;99.90;;;;;;5031872;28;20222;-64
2021/04/01 00:10:18;;;;;;;1999.90;999.90;;;16.30;99.90;;;;;;5031973;28;20414;-65
2021/04/01 00:12:44;;;;;;;1999.90;999.90;;;16.20;99.90;;;;;;5031630;28;20209;-65
2021/04/01 00:15:11;;;;;;;1999.90;999.90;;;16.20;99.90;;;;;;5031405;28;20537;-65
2021/04/01 00:17:38;;;;;;;1999.90;999.90;;;16.20;99.90;;;;;;5032190;28;20220;-65
2021/04/01 00:20:06;;;;;;;1999.90;999.90;;;16.20;99.90;;;;;;5031519;28;20429;-65
2021/04/01 00:22:32;;;;;;;1999.90;999.90;;;16.10;99.90;;;;;;5034205;28;20571;-64
2021/04/01 00:24:57;;;;;;;1999.90;999.90;;;16.00;99.90;;;;;;5035431;28;20461;-66
2021/04/01 00:27:23;;;;;;;1999.90;999.90;;;16.00;99.90;;;;;;5035784;28;20587;-64
2021/04/01 00:29:48;;;;;;;1999.90;999.90;;;15.90;99.90;;;;;;5035731;28;20227;-65
2021/04/01 00:32:14;;;;;;;1999.90;999.90;;;15.70;99.90;;;;;;5035470;28;20691;-65
2021/04/01 00:34:40;;;;;;;1999.90;999.90;;;15.50;99.90;;;;;;5035230;28;20169;-65
2021/04/01 00:37:05;;;;;;;1999.90;999.90;;;15.40;99.90;;;;;;5035095;28;20192;-66
2021/04/01 00:39:31;;;;;;;1999.90;999.90;;;15.30;99.90;;;;;;5035507;28;20636;-66
2021/04/01 00:41:56;;;;;;;1999.90;999.90;;;15.30;99.90;;;;;;5035801;28;20170;-65
2021/04/01 00:44:22;;;;;;;1999.90;999.90;;;15.20;99.90;;;;;;5035713;28;20248;-65
2021/04/01 00:46:48;;;;;;;1999.90;999.90;;;15.20;99.90;;;;;;5035402;28;20175;-65
2021/04/01 00:49:15;;;;;;;1999.90;999.90;;;15.10;99.90;;;;;;5035027;28;20253;-65
2021/04/01 00:51:41;;;;;;;1999.90;999.90;;;15.10;99.90;;;;;;5034868;28;20173;-65
2021/04/01 00:54:07;;;;;;;1999.90;999.90;;;15.00;99.90;;;;;;5035197;28;20409;-65
2021/04/01 00:56:33;;;;;;;1999.90;999.90;;;15.00;99.90;;;;;;5034690;28;20547;-65
2021/04/01 00:59:00;;;;;;;1999.90;999.90;;;14.90;99.90;;;;;;5034926;28;20403;-66
2021/04/01 01:01:36;;;;;;;1999.90;999.90;;;14.90;99.90;;;;;;5034976;28;20404;-65
2021/04/01 01:04:02;;;;;;;1999.90;999.90;;;14.90;99.90;;;;;;5034883;28;20456;-65
2021/04/01 01:06:28;;;;;;;1999.90;999.90;;;14.80;99.90;;;;;;5034401;28;20965;-65
2021/04/01 01:08:53;;;;;;;1999.90;999.90;;;14.80;99.90;;;;;;5035024;28;20401;-65
2021/04/01 01:11:19;;;;;;;1999.90;999.90;;;14.70;99.90;;;;;;5034660;28;20173;-65
2021/04/01 01:13:45;;;;;;;1999.90;999.90;;;14.70;99.90;;;;;;5034890;28;20259;-65
2021/04/01 01:16:12;;;;;;;1999.90;999.90;;;14.60;99.90;;;;;;5034649;28;20873;-65
2021/04/01 01:18:37;;;;;;;1999.90;999.90;;;14.40;99.90;;;;;;5035265;28;20198;-65
2021/04/01 01:21:03;;;;;;;1999.90;999.90;;;14.30;99.90;;;;;;5034802;28;20410;-65
2021/04/01 01:23:29;;;;;;;1999.90;999.90;;;14.20;99.90;;;;;;5034809;28;20223;-65
2021/04/01 01:25:56;;;;;;;1999.90;999.90;;;14.10;99.90;;;;;;5034141;28;20415;-65
2021/04/01 01:28:22;;;;;;;1999.90;999.90;;;14.10;99.90;;;;;;5034686;28;20405;-66
2021/04/01 01:30:49;;;;;;;1999.90;999.90;;;14.10;99.90;;;;;;5034439;28;20424;-65
2021/04/01 01:33:22;;;;;;;1999.90;999.90;;;14.00;99.90;;;;;;5033220;28;20424;-65
2021/04/01 01:35:51;;;;;;;1999.90;999.90;;;13.90;99.90;;;;;;5034116;28;20448;-65
2021/04/01 01:38:16;;;;;;;1999.90;999.90;;;13.90;99.90;;;;;;5034266;28;20413;-65
2021/04/01 01:40:42;;;;;;;1999.90;999.90;;;13.80;99.90;;;;;;5035001;28;20778;-65
2021/04/01 01:43:10;;;;;;;1999.90;999.90;;;13.80;99.90;;;;;;5034885;28;20455;-65
2021/04/01 01:45:37;;;;;;;1999.90;999.90;;;13.80;99.90;;;;;;5034300;28;20777;-64
2021/04/01 01:48:03;;;;;;;1999.90;999.90;;;13.70;99.90;;;;;;5034181;28;20406;-66
2021/04/01 01:50:31;;;;;;;1999.90;999.90;;;13.60;99.90;;;;;;5034360;28;20501;-65
2021/04/01 01:52:57;;;;;;;1999.90;999.90;;;13.60;99.90;;;;;;5034262;28;20411;-65
2021/04/01 01:55:23;;;;;;;1999.90;999.90;;;13.60;99.90;;;;;;5033330;28;20406;-65
2021/04/01 01:57:49;;;;;;;1999.90;999.90;;;13.50;99.90;;;;;;5033869;28;20460;-66
2021/04/01 02:00:27;;;;;;;1999.90;999.90;;;13.50;99.90;;;;;;5034040;28;20407;-65
2021/04/01 02:02:58;;;;;;;1999.90;999.90;;;13.50;99.90;;;;;;5033810;28;20183;-66
2021/04/01 02:05:27;;;;;;;1999.90;999.90;;;13.40;99.90;;;;;;5033269;28;20432;-65
2021/04/01 02:07:54;;;;;;;1999.90;999.90;;;13.50;99.90;;;;;;5033791;28;20413;-65
2021/04/01 02:10:23;;;;;;;1999.90;999.90;;;13.60;99.90;;;;;;5034358;28;20428;-65
2021/04/01 02:12:48;;;;;;;1999.90;999.90;;;13.60;99.90;;;;;;5033087;28;20799;-65
2021/04/01 02:15:15;;;;;;;1999.90;999.90;;;13.60;99.90;;;;;;5032920;28;20471;-65
2021/04/01 02:17:41;;;;;;;1999.90;999.90;;;13.40;99.90;;;;;;5033280;28;20572;-65
2021/04/01 02:20:08;;;;;;;1999.90;999.90;;;13.30;99.90;;;;;;5033246;28;20451;-65
2021/04/01 02:22:34;;;;;;;1999.90;999.90;;;13.30;99.90;;;;;;5033475;28;20282;-65
2021/04/01 02:24:59;;;;;;;1999.90;999.90;;;13.20;99.90;;;;;;5033303;28;20430;-65
2021/04/01 02:27:26;;;;;;;1999.90;999.90;;;13.20;99.90;;;;;;5033250;28;20179;-64
2021/04/01 02:29:52;;;;;;;1999.90;999.90;;;13.30;99.90;;;;;;5034571;28;20178;-65
2021/04/01 02:32:18;;;;;;;1999.90;999.90;;;13.20;99.90;;;;;;5033987;28;20425;-65
2021/04/01 02:34:44;;;;;;;1999.90;999.90;;;13.10;99.90;;;;;;5033527;28;20761;-65
2021/04/01 02:37:09;;;;;;;1999.90;999.90;;;13.10;99.90;;;;;;5033610;28;20223;-65
2021/04/01 02:39:35;;;;;;;1999.90;999.90;;;13.10;99.90;;;;;;5033434;28;20170;-66
2021/04/01 02:42:01;;;;;;;1999.90;999.90;;;13.00;99.90;;;;;;5032236;28;20582;-66
2021/04/01 02:44:26;;;;;;;1999.90;999.90;;;13.00;99.90;;;;;;5032844;28;20171;-65
2021/04/01 02:46:52;;;;;;;1999.90;999.90;;;13.00;99.90;;;;;;5032373;28;20171;-65
2021/04/01 02:49:18;;;;;;;1999.90;999.90;;;13.00;99.90;;;;;;5032918;28;20174;-65
2021/04/01 02:51:43;;;;;;;1999.90;999.90;;;13.10;99.90;;;;;;5033529;28;20538;-65
2021/04/01 02:54:09;;;;;;;1999.90;999.90;;;13.10;99.90;;;;;;5033347;28;20207;-65
2021/04/01 02:56:34;;;;;;;1999.90;999.90;;;13.20;99.90;;;;;;5032775;28;20190;-65
2021/04/01 02:59:00;;;;;;;1999.90;999.90;;;13.20;99.90;;;;;;5033764;28;20220;-65
2021/04/01 03:01:26;;;;;;;1999.90;999.90;;;13.10;99.90;;;;;;5033617;28;20673;-66
2021/04/01 03:03:54;;;;;;;1999.90;999.90;;;13.00;99.90;;;;;;5033284;28;20186;-65
2021/04/01 03:06:20;;;;;;;1999.90;999.90;;;12.90;99.90;;;;;;5032499;28;20172;-65
2021/04/01 03:08:46;;;;;;;1999.90;999.90;;;13.00;99.90;;;;;;5032432;28;20420;-65
2021/04/01 03:11:11;;;;;;;1999.90;999.90;;;13.00;99.90;;;;;;5032991;28;20401;-65
2021/04/01 03:13:37;;;;;;;1999.90;999.90;;;12.90;99.90;;;;;;5033205;28;20208;-65
2021/04/01 03:16:03;;;;;;;1999.90;999.90;;;12.80;99.90;;;;;;5032852;28;20202;-65
2021/04/01 03:18:28;;;;;;;1999.90;999.90;;;12.80;99.90;;;;;;5032403;28;20249;-65
2021/04/01 03:20:54;;;;;;;1999.90;999.90;;;12.80;99.90;;;;;;5033207;28;20168;-65
2021/04/01 03:23:20;;;;;;;1999.90;999.90;;;12.70;99.90;;;;;;5033031;28;20217;-65
2021/04/01 03:25:45;;;;;;;1999.90;999.90;;;12.70;99.90;;;;;;5032813;28;20156;-65
2021/04/01 03:28:12;;;;;;;1999.90;999.90;;;12.80;99.90;;;;;;5033031;28;20210;-65
2021/04/01 03:30:45;;;;;;;1999.90;999.90;;;12.70;99.90;;;;;;5032441;28;20170;-65
2021/04/01 03:33:10;;;;;;;1999.90;999.90;;;12.70;99.90;;;;;;5032376;28;20425;-65
2021/04/01 03:35:36;;;;;;;1999.90;999.90;;;12.70;99.90;;;;;;5031701;28;20399;-64
2021/04/01 03:38:04;;;;;;;1999.90;999.90;;;12.70;99.90;;;;;;5032691;28;20252;-65
2021/04/01 03:40:30;;;;;;;1999.90;999.90;;;12.70;99.90;;;;;;5031830;28;20167;-65
2021/04/01 03:42:56;;;;;;;1999.90;999.90;;;12.70;99.90;;;;;;5031854;28;20429;-65
2021/04/01 03:45:22;;;;;;;1999.90;999.90;;;12.60;99.90;;;;;;5031968;28;20190;-65
2021/04/01 03:47:47;;;;;;;1999.90;999.90;;;12.60;99.90;;;;;;5033004;28;20407;-65
2021/04/01 03:50:14;;;;;;;1999.90;999.90;;;12.60;99.90;;;;;;5032406;28;20303;-65
2021/04/01 03:52:41;;;;;;;1999.90;999.90;;;12.60;99.90;;;;;;5031694;28;20184;-65
2021/04/01 04:03:58;;;;;;;1999.90;999.90;;;12.60;99.90;;;;;;5036042;28;20770;-68
2021/04/01 04:14:40;;;;;;;1999.90;999.90;;;12.50;99.90;;;;;;5015679;28;20796;-68
2021/04/01 04:17:06;;;;;;;1999.90;999.90;;;12.50;99.90;;;;;;5015627;28;20484;-68
2021/04/01 04:19:32;;;;;;;1999.90;999.90;;;12.50;99.90;;;;;;5015765;28;20942;-68
2021/04/01 04:21:58;;;;;;;1999.90;999.90;;;12.50;99.90;;;;;;5015663;28;20174;-68
2021/04/01 04:24:25;;;;;;;1999.90;999.90;;;12.50;99.90;;;;;;5015479;28;20199;-68
2021/04/01 04:26:51;;;;;;;1999.90;999.90;;;12.40;99.90;;;;;;5015489;28;20415;-68
2021/04/01 04:29:17;;;;;;;1999.90;999.90;;;12.40;99.90;;;;;;5015543;28;20498;-68
2021/04/01 04:31:43;;;;;;;1999.90;999.90;;;12.40;99.90;;;;;;5015539;28;20412;-68
2021/04/01 04:34:09;;;;;;;1999.90;999.90;;;12.50;99.90;;;;;;5015267;28;20920;-68
2021/04/01 04:36:34;;;;;;;1999.90;999.90;;;12.50;99.90;;;;;;5015023;28;20668;-68
2021/04/01 04:39:00;;;;;;;1999.90;999.90;;;12.50;99.90;;;;;;5015351;28;20276;-68
2021/04/01 04:41:25;;;;;;;1999.90;999.90;;;12.40;99.90;;;;;;5015289;28;20204;-68
2021/04/01 04:43:51;;;;;;;1999.90;999.90;;;12.30;99.90;;;;;;5015271;28;20602;-68
2021/04/01 04:46:17;;;;;;;1999.90;999.90;;;12.30;99.90;;;;;;5014755;28;20200;-68
2021/04/01 04:48:42;;;;;;;1999.90;999.90;;;12.30;99.90;;;;;;5015180;28;20177;-68
2021/04/01 04:51:08;;;;;;;1999.90;999.90;;;12.30;99.90;;;;;;5014993;28;20638;-68
2021/04/01 04:53:33;;;;;;;1999.90;999.90;;;12.30;99.90;;;;;;5015042;28;20255;-68
2021/04/01 04:58:35;;;;;;;1999.90;999.90;;;12.20;99.90;;;;;;5014972;28;20624;-68
2021/04/01 05:06:12;;;;;;;1999.90;999.90;;;12.20;99.90;;;;;;5014573;28;20521;-68
2021/04/01 05:08:38;;;;;;;1999.90;999.90;;;12.30;99.90;;;;;;5014489;28;20424;-68
2021/04/01 05:11:03;;;;;;;1999.90;999.90;;;12.30;99.90;;;;;;5014791;28;20408;-68
2021/04/01 05:13:29;;;;;;;1999.90;999.90;;;12.40;99.90;;;;;;5014892;28;20208;-68
2021/04/01 05:15:55;;;;;;;1999.90;999.90;;;12.40;99.90;;;;;;5014234;28;20194;-68
2021/04/01 05:18:28;;;;;;;1999.90;999.90;;;12.40;99.90;;;;;;5014503;28;20182;-68
2021/04/01 05:20:56;;;;;;;1999.90;999.90;;;12.30;99.90;;;;;;5014758;28;20182;-68
2021/04/01 05:23:34;;;;;;;1999.90;999.90;;;12.20;99.90;;;;;;5014480;28;20428;-68
2021/04/01 05:28:38;;;;;;;1999.90;999.90;;;12.20;99.90;;;;;;5014413;28;20409;-67
2021/04/01 05:31:05;;;;;;;1999.90;999.90;;;12.10;99.90;;;;;;5014417;28;20435;-68
2021/04/01 05:33:35;;;;;;;1999.90;999.90;;;12.10;99.90;;;;;;5014529;28;20185;-67
2021/04/01 05:36:03;;;;;;;1999.90;999.90;;;12.20;99.90;;;;;;5014082;28;20461;-68
2021/04/01 05:38:28;;;;;;;1999.90;999.90;;;12.20;99.90;;;;;;5014293;28;20860;-68
2021/04/01 05:40:54;;;;;;;1999.90;999.90;;;12.10;99.90;;;;;;5018671;28;20450;-67
2021/04/01 05:43:23;;;;;;;1999.90;999.90;;;12.10;99.90;;;;;;5018510;28;20174;-68
2021/04/01 05:46:03;;;;;;;1999.90;999.90;;;12.10;99.90;;;;;;5018512;28;20194;-68
2021/04/01 05:48:58;;;;;;;1999.90;999.90;;;12.10;99.90;;;;;;5018404;28;20400;-68
2021/04/01 06:02:40;;;;;;;1999.90;999.90;;;12.30;99.90;;;;;;5018663;28;20409;-68
2021/04/01 06:05:09;;;;;;;1999.90;999.90;;;12.10;99.90;;;;;;5017864;28;20512;-67
2021/04/01 06:07:41;;;;;;;1999.90;999.90;;;12.30;99.90;;;;;;5018080;28;20850;-68
2021/04/01 06:10:08;;;;;;;1999.90;999.90;;;12.30;99.90;;;;;;5018052;28;20470;-68
2021/04/01 06:12:34;;;;;;;1999.90;999.90;;;12.40;99.90;;;;;;5017774;28;20422;-67
2021/04/01 06:15:11;;;;;;;1999.90;999.90;;;12.40;99.90;;;;;;5018105;28;20422;-67
2021/04/01 06:17:48;;;;;;;1999.90;999.90;;;12.40;99.90;;;;;;5018151;28;20243;-68
2021/04/01 06:20:15;;;;;;;1999.90;999.90;;;12.40;99.90;;;;;;5017408;28;20401;-67
2021/04/01 06:22:42;;;;;;;1999.90;999.90;;;12.50;99.90;;;;;;5017358;28;20406;-67
2021/04/01 06:25:15;;;;;;;1999.90;999.90;;;12.50;99.90;;;;;;5017354;28;20777;-68
2021/04/01 06:32:52;;;;;;;1999.90;999.90;;;12.40;99.90;;;;;;5017215;28;20947;-67
2021/04/01 06:35:24;;;;;;;1999.90;999.90;;;12.50;99.90;;;;;;5017262;28;20428;-68
2021/04/01 06:38:19;;;;;;;1999.90;999.90;;;12.60;99.90;;;;;;5016076;28;20503;-68
2021/04/01 06:40:47;;;;;;;1999.90;999.90;;;12.60;99.90;;;;;;5016974;28;20409;-67
2021/04/01 06:43:19;;;;;;;1999.90;999.90;;;12.60;99.90;;;;;;5017024;28;20404;-67
2021/04/01 06:45:56;;;;;;;1999.90;999.90;;;12.70;99.90;;;;;;5014578;28;20425;-68
2021/04/01 06:48:25;;;;;;;1999.90;999.90;;;12.80;99.90;;;;;;5015302;28;20431;-67
2021/04/01 06:51:09;;;;;;;1999.90;999.90;;;12.90;99.90;;;;;;5012959;28;20900;-68
2021/04/01 06:56:19;;;;;;;1999.90;999.90;;;13.20;99.90;;;;;;5012370;28;20467;-66
2021/04/01 07:01:41;;;;;;;1999.90;999.90;;;13.20;99.90;;;;;;5012867;28;20910;-68
2021/04/01 07:04:10;;;;;;;1999.90;999.90;;;13.40;99.90;;;;;;5012634;28;20441;-68
2021/04/01 07:06:40;;;;;;;1999.90;999.90;;;13.60;99.90;;;;;;5012332;28;20949;-68
2021/04/01 07:09:32;;;;;;;1999.90;999.90;;;13.70;99.90;;;;;;5012818;28;20417;-67
2021/04/01 07:12:17;;;;;;;1999.90;999.90;;;13.80;99.90;;;;;;5012642;28;20498;-68
2021/04/01 07:14:46;;;;;;;1999.90;999.90;;;14.00;99.90;;;;;;5012381;28;20428;-68
2021/04/01 07:17:22;;;;;;;1999.90;999.90;;;14.10;99.90;;;;;;5012386;28;20822;-68
2021/04/01 07:47:54;;;;;;;1999.90;999.90;;;15.00;99.90;;;;;;5017471;28;20915;-68
2021/04/01 07:50:24;;;;;;;1999.90;999.90;;;15.20;99.90;;;;;;5018364;28;20931;-68
2021/04/01 07:52:59;;;;;;;1999.90;999.90;;;15.40;99.90;;;;;;5018865;28;20408;-68
2021/04/01 08:01:07;;;;;;;1999.90;999.90;;;16.00;99.90;;;;;;5019359;28;20408;-68
2021/04/01 08:06:29;;;;;;;1999.90;999.90;;;16.30;99.90;;;;;;5015603;28;20931;-67
2021/04/01 08:09:04;;;;;;;1999.90;999.90;;;16.50;99.90;;;;;;5013809;28;20483;-67
2021/04/01 08:11:43;;;;;;;1999.90;999.90;;;16.70;99.90;;;;;;5013481;28;20418;-68
2021/04/01 08:14:18;;;;;;;1999.90;999.90;;;16.80;99.90;;;;;;5013228;28;20400;-67
2021/04/01 08:19:19;;;;;;;1999.90;999.90;;;17.00;99.90;;;;;;5013714;28;20902;-68
2021/04/01 08:21:48;;;;;;;1999.90;999.90;;;17.10;99.90;;;;;;5013505;28;20569;-68
2021/04/01 08:24:26;;;;;;;1999.90;999.90;;;17.20;99.90;;;;;;5013316;28;20767;-67
2021/04/01 08:30:26;;;;;;;1999.90;999.90;;;17.20;99.90;;;;;;5013741;28;20415;-67
2021/04/01 08:35:13;;;;;;;1999.90;999.90;;;17.40;99.90;;;;;;5013439;28;20435;-67
2021/04/01 08:38:02;;;;;;;1999.90;999.90;;;17.30;99.90;;;;;;5014458;28;20448;-68
2021/04/01 08:40:28;;;;;;;1999.90;999.90;;;17.10;99.90;;;;;;5015295;28;20786;-68
2021/04/01 08:42:54;;;;;;;1999.90;999.90;;;16.90;99.90;;;;;;5015945;28;20405;-68
2021/04/01 08:48:22;;;;;;;1999.90;999.90;;;16.80;99.90;;;;;;5015630;28;20530;-67
2021/04/01 08:50:54;;;;;;;1999.90;999.90;;;16.80;99.90;;;;;;5015658;28;20412;-68
2021/04/01 08:54:01;;;;;;;1999.90;999.90;;;16.90;99.90;;;;;;5014672;28;20434;-69
2021/04/01 08:56:27;;;;;;;1999.90;999.90;;;17.10;99.90;;;;;;5015290;28;20836;-68
2021/04/01 08:59:09;;;;;;;1999.90;999.90;;;17.40;99.90;;;;;;5009225;28;20419;-69
2021/04/01 09:01:39;;;;;;;1999.90;999.90;;;17.40;99.90;;;;;;5014041;28;20413;-70
2021/04/01 09:04:05;;;;;;;1999.90;999.90;;;17.40;99.90;;;;;;5013553;28;20412;-69
2021/04/01 09:06:34;;;;;;;1999.90;999.90;;;17.60;99.90;;;;;;5012907;28;20423;-69
2021/04/01 09:09:18;;;;;;;1999.90;999.90;;;17.70;99.90;;;;;;5012703;28;20461;-70
2021/04/01 09:12:11;;;;;;;1999.90;999.90;;;17.70;99.90;;;;;;5012389;28;20415;-70
2021/04/01 09:14:33;;;;;;;1999.90;999.90;;;17.80;99.90;;;;;;5013597;28;20951;-67
2021/04/01 09:17:10;;;;;;;1999.90;999.90;;;17.80;99.90;;;;;;5013992;28;20559;-66
2021/04/01 09:19:38;;;;;;;1999.90;999.90;;;17.80;99.90;;;;;;5011726;28;20421;-67
2021/04/01 09:22:25;;;;;;;1999.90;999.90;;;17.90;99.90;;;;;;5014312;28;20839;-68
2021/04/01 09:25:03;;;;;;;1999.90;999.90;;;17.90;99.90;;;;;;5014041;28;20934;-69
2021/04/01 09:27:28;;;;;;;1999.90;999.90;;;17.90;99.90;;;;;;5013286;28;20891;-68
2021/04/01 09:30:09;;;;;;;1999.90;999.90;;;17.90;99.90;;;;;;5013156;28;20498;-67
2021/04/01 09:32:37;;;;;;;1999.90;999.90;;;18.10;99.90;;;;;;5013045;28;20180;-67
2021/04/01 09:35:04;;;;;;;1999.90;999.90;;;18.20;99.90;;;;;;5010298;28;20524;-68
2021/04/01 09:37:30;;;;;;;1999.90;999.90;;;18.20;99.90;;;;;;5013682;28;20459;-68
2021/04/01 09:40:10;;;;;;;1999.90;999.90;;;18.40;99.90;;;;;;5013189;28;20901;-70
2021/04/01 09:42:42;;;;;;;1999.90;999.90;;;18.60;99.90;;;;;;5012218;28;20463;-68
2021/04/01 09:45:12;;;;;;;1999.90;999.90;;;18.70;99.90;;;;;;5011927;28;20988;-68
2021/04/01 09:47:55;;;;;;;1999.90;999.90;;;19.00;99.90;;;;;;5012401;28;20441;-68
2021/04/01 09:50:25;;;;;;;1999.90;999.90;;;18.90;99.90;;;;;;5012393;28;20411;-68
2021/04/01 09:53:00;;;;;;;1999.90;999.90;;;19.10;99.90;;;;;;5012655;28;20460;-71
2021/04/01 09:55:35;;;;;;;1999.90;999.90;;;19.20;99.90;;;;;;5010885;28;20495;-69
2021/04/01 09:58:14;;;;;;;1999.90;999.90;;;19.10;99.90;;;;;;5012081;28;20465;-69
2021/04/01 10:03:50;;;;;;;1999.90;999.90;;;19.40;99.90;;;;;;5012090;28;20415;-69
2021/04/01 10:06:37;;;;;;;1999.90;999.90;;;19.50;99.90;;;;;;5011906;28;20458;-69
2021/04/01 10:09:11;;;;;;;1999.90;999.90;;;19.50;99.90;;;;;;5012096;28;20461;-69
2021/04/01 10:11:42;;;;;;;1999.90;999.90;;;19.50;99.90;;;;;;5011375;28;20499;-68
2021/04/01 10:14:10;;;;;;;1999.90;999.90;;;19.70;99.90;;;;;;5011669;28;20403;-68
2021/04/01 10:16:54;;;;;;;1999.90;999.90;;;19.90;99.90;;;;;;5011542;28;20466;-68
2021/04/01 10:19:32;;;;;;;1999.90;999.90;;;20.10;99.90;;;;;;5011048;28;20400;-68
2021/04/01 10:21:59;;;;;;;1999.90;999.90;;;20.10;99.90;;;;;;5011585;28;20510;-68
2021/04/01 10:24:30;;;;;;;1999.90;999.90;;;19.90;99.90;;;;;;5011310;28;20437;-68
2021/04/01 10:27:22;;;;;;;1999.90;999.90;;;20.00;99.90;;;;;;5011152;28;20411;-67
2021/04/01 10:32:16;;;;;;;1999.90;999.90;;;20.30;99.90;;;;;;5011548;28;20412;-66
2021/04/01 10:34:52;;;;;;;1999.90;999.90;;;20.40;99.90;;;;;;5011280;28;20482;-68
2021/04/01 10:37:20;;;;;;;1999.90;999.90;;;20.40;99.90;;;;;;5011877;28;20498;-67
2021/04/01 10:39:46;;;;;;;1999.90;999.90;;;20.20;99.90;;;;;;5011155;28;20424;-67
2021/04/01 10:42:14;;;;;;;1999.90;999.90;;;20.30;99.90;;;;;;5011054;28;20407;-67
2021/04/01 10:44:41;;;;;;;1999.90;999.90;;;20.30;99.90;;;;;;5011175;28;20200;-67
2021/04/01 10:47:08;;;;;;;1999.90;999.90;;;20.40;99.90;;;;;;5011226;28;20419;-67
2021/04/01 10:49:36;;;;;;;1999.90;999.90;;;20.50;99.90;;;;;;5010273;28;20418;-68
2021/04/01 10:52:03;;;;;;;1999.90;999.90;;;20.50;99.90;;;;;;5010789;28;20513;-68
2021/04/01 10:54:42;;;;;;;1999.90;999.90;;;20.60;99.90;;;;;;5010712;28;20450;-67
2021/04/01 10:57:09;;;;;;;1999.90;999.90;;;20.80;99.90;;;;;;5010812;28;20510;-68
2021/04/01 10:59:49;;;;;;;1999.90;999.90;;;20.80;99.90;;;;;;5010451;28;20418;-68
2021/04/01 11:02:14;;;;;;;1999.90;999.90;;;20.80;99.90;;;;;;5011410;28;20407;-68
2021/04/01 11:04:43;;;;;;;1999.90;999.90;;;20.80;99.90;;;;;;5010144;28;20825;-67
2021/04/01 11:07:09;;;;;;;1999.90;999.90;;;20.90;99.90;;;;;;5010172;28;20514;-67
2021/04/01 11:09:38;;;;;;;1999.90;999.90;;;20.80;99.90;;;;;;5010384;28;20468;-67
2021/04/01 11:12:15;;;;;;;1999.90;999.90;;;20.90;99.90;;;;;;5010150;28;20407;-66
2021/04/01 11:14:43;;;;;;;1999.90;999.90;;;21.10;99.90;;;;;;5010826;28;20438;-67
2021/04/01 11:17:10;;;;;;;1999.90;999.90;;;21.10;99.90;;;;;;5010447;28;20518;-68
2021/04/01 11:19:38;;;;;;;1999.90;999.90;;;21.20;99.90;;;;;;5009848;28;20925;-68
2021/04/01 11:22:04;;;;;;;1999.90;999.90;;;21.40;99.90;;;;;;5010744;28;20466;-68
2021/04/01 11:24:33;;;;;;;1999.90;999.90;;;21.30;99.90;;;;;;5010779;28;20427;-68
2021/04/01 11:27:14;;;;;;;1999.90;999.90;;;21.40;99.90;;;;;;5009634;28;20177;-68
2021/04/01 11:29:48;;;;;;;1999.90;999.90;;;21.30;99.90;;;;;;5010261;28;20416;-67
2021/04/01 11:32:36;;;;;;;1999.90;999.90;;;21.40;99.90;;;;;;5009890;28;20483;-68
2021/04/01 11:35:05;;;;;;;1999.90;999.90;;;21.30;99.90;;;;;;5009907;28;20420;-67
2021/04/01 11:37:36;;;;;;;1999.90;999.90;;;21.40;99.90;;;;;;5010096;28;20822;-67
2021/04/01 11:40:08;;;;;;;1999.90;999.90;;;21.50;99.90;;;;;;5009568;28;20487;-67
2021/04/01 11:42:34;;;;;;;1999.90;999.90;;;21.60;99.90;;;;;;5010222;28;20404;-68
2021/04/01 11:45:07;;;;;;;1999.90;999.90;;;21.60;99.90;;;;;;5009791;28;20926;-68
2021/04/01 11:47:39;;;;;;;1999.90;999.90;;;21.90;99.90;;;;;;5009789;28;20653;-68
2021/04/01 11:50:05;;;;;;;1999.90;999.90;;;22.10;99.90;;;;;;5010196;28;20900;-68
2021/04/01 11:52:32;;;;;;;1999.90;999.90;;;22.40;99.90;;;;;;5010187;28;20922;-67
2021/04/01 11:55:11;;;;;;;1999.90;999.90;;;22.80;99.90;;;;;;5009216;28;20436;-68
2021/04/01 11:57:42;;;;;;;1999.90;999.90;;;23.20;99.90;;;;;;5009791;28;20470;-68
2021/04/01 12:00:18;;;;;;;1999.90;999.90;;;23.40;99.90;;;;;;5009709;28;20385;-67
2021/04/01 12:03:01;;;;;;;1999.90;999.90;;;23.30;99.90;;;;;;5009791;28;20418;-68
2021/04/01 12:05:30;;;;;;;1999.90;999.90;;;23.50;99.90;;;;;;5009692;28;20925;-67
2021/04/01 12:07:56;;;;;;;1999.90;999.90;;;23.80;99.90;;;;;;5009866;28;20885;-68
2021/04/01 12:10:22;;;;;;;1999.90;999.90;;;24.20;99.90;;;;;;5009281;28;20759;-67
2021/04/01 12:12:55;;;;;;;1999.90;999.90;;;24.40;99.90;;;;;;5009765;28;20416;-68
2021/04/01 12:15:35;;;;;;;1999.90;999.90;;;24.30;99.90;;;;;;5009832;28;20413;-68
2021/04/01 12:18:03;;;;;;;1999.90;999.90;;;24.60;99.90;;;;;;5010464;28;20479;-68
2021/04/01 12:20:29;;;;;;;1999.90;999.90;;;24.80;99.90;;;;;;5013386;28;20403;-68
2021/04/01 12:22:55;;;;;;;1999.90;999.90;;;24.50;99.90;;;;;;5013720;28;20401;-68
2021/04/01 12:25:23;;;;;;;1999.90;999.90;;;24.20;99.40;;;;;;5012724;28;20424;-67
2021/04/01 12:27:54;;;;;;;1999.90;999.90;;;24.10;99.90;;;;;;5013701;28;20179;-68
2021/04/01 12:30:28;;;;;;;1999.90;999.90;;;24.30;99.00;;;;;;5013546;28;20525;-68
2021/04/01 12:33:20;;;;;;;1999.90;999.90;;;24.50;98.70;;;;;;5012693;28;20949;-65
2021/04/01 12:35:56;;;;;;;1999.90;999.90;;;25.00;97.60;;;;;;5013129;28;20394;-66
2021/04/01 12:38:37;;;;;;;1999.90;999.90;;;24.70;97.20;;;;;;5013249;28;20430;-66
2021/04/01 12:41:26;;;;;;;1999.90;999.90;;;24.90;97.50;;;;;;5012922;28;20466;-66
2021/04/01 12:43:53;;;;;;;1999.90;999.90;;;25.00;95.80;;;;;;5013320;28;20963;-66
2021/04/01 12:46:18;;;;;;;1999.90;999.90;;;24.50;96.00;;;;;;5012324;28;20409;-66
2021/04/01 12:48:55;;;;;;;1999.90;999.90;;;24.50;96.50;;;;;;5013356;28;20463;-66
2021/04/01 12:51:22;;;;;;;1999.90;999.90;;;24.60;95.70;;;;;;5013255;28;20378;-65
2021/04/01 12:54:07;;;;;;;1999.90;999.90;;;24.70;96.70;;;;;;5012714;28;20503;-66
2021/04/01 12:56:42;;;;;;;1999.90;999.90;;;25.10;94.10;;;;;;5012711;28;20812;-66
2021/04/01 12:59:20;;;;;;;1999.90;999.90;;;25.30;94.10;;;;;;5012526;28;20378;-66
2021/04/01 13:01:53;;;;;;;1999.90;999.90;;;25.50;92.50;;;;;;5012134;28;20469;-66
2021/04/01 13:04:23;;;;;;;1999.90;999.90;;;25.90;93.40;;;;;;5012901;28;20439;-65
2021/04/01 13:11:44;;;;;;;1999.90;999.90;;;25.60;90.70;;;;;;5012901;28;20647;-66
2021/04/01 13:14:10;;;;;;;1999.90;999.90;;;26.20;87.60;;;;;;5012726;28;20415;-66
2021/04/01 13:16:36;;;;;;;1999.90;999.90;;;26.80;83.40;;;;;;5012066;28;20192;-66
2021/04/01 13:19:01;;;;;;;1999.90;999.90;;;26.60;82.00;;;;;;5012431;28;20169;-66
2021/04/01 13:21:38;;;;;;;1999.90;999.90;;;25.90;82.70;;;;;;5012341;28;20432;-66
2021/04/01 13:26:34;;;;;;;1999.90;999.90;;;25.50;81.70;;;;;;5012531;28;20419;-66
2021/04/01 13:29:01;;;;;;;1999.90;999.90;;;26.10;81.80;;;;;;5011895;28;20439;-66
2021/04/01 13:31:39;;;;;;;1999.90;999.90;;;26.80;79.70;;;;;;5012092;28;20410;-66
2021/04/01 13:34:13;;;;;;;1999.90;999.90;;;26.40;78.40;;;;;;5012276;28;20421;-66
2021/04/01 13:36:46;;;;;;;1999.90;999.90;;;26.90;78.20;;;;;;5012309;28;20438;-66
2021/04/01 13:39:18;;;;;;;1999.90;999.90;;;26.70;79.10;;;;;;5011828;28;20442;-66
2021/04/01 13:44:21;;;;;;;1999.90;999.90;;;26.50;77.70;;;;;;5012099;28;20419;-66
2021/04/01 13:46:47;;;;;;;1999.90;999.90;;;26.00;79.00;;;;;;5010329;28;20474;-65
2021/04/01 13:49:21;;;;;;;1999.90;999.90;;;25.40;80.90;;;;;;5011160;28;20398;-66
2021/04/01 13:51:50;;;;;;;1999.90;999.90;;;25.10;87.80;;;;;;5011448;28;20954;-65
2021/04/01 13:57:26;;;;;;;1999.90;999.90;;;26.10;89.70;;;;;;5011494;28;20461;-66
2021/04/01 14:00:02;;;;;;;1999.90;999.90;;;26.80;86.70;;;;;;5011185;28;20572;-65
2021/04/01 14:10:46;;;;;;;1999.90;999.90;;;26.10;87.70;;;;;;5011851;28;20440;-66
2021/04/01 14:13:16;;;;;;;1999.90;999.90;;;25.60;87.50;;;;;;5010706;28;20474;-65
2021/04/01 14:15:42;;;;;;;1999.90;999.90;;;25.10;90.70;;;;;;5010857;28;20406;-65